createdAt,value
2022-08-07T00:01:43.781Z,102481.97
2022-08-07T00:04:09.324Z,102478.59
2022-08-07T00:06:37.344Z,102483.88
2022-08-07T00:09:22.732Z,102481.44
2022-08-07T00:11:55.959Z,102475.38
2022-08-07T00:14:30.963Z,102475.53
2022-08-07T00:17:02.632Z,102469.44
2022-08-07T00:19:59.955Z,102472.13
2022-08-07T00:22:24.690Z,102471.47
2022-08-07T00:25:16.617Z,102474.13
2022-08-07T00:27:53.749Z,102470.56
2022-08-07T00:30:27.426Z,102462.72
2022-08-07T00:32:58.930Z,102464.69
2022-08-07T00:35:29.957Z,102457.03
2022-08-07T00:38:00.431Z,102456.31
2022-08-07T00:40:36.370Z,102457.34
2022-08-07T00:44:01.433Z,102450.53
2022-08-07T00:46:02.173Z,102449.91
2022-08-07T00:48:32.363Z,102447.41
2022-08-07T00:51:02.873Z,102450.09
2022-08-07T00:53:38.498Z,102445.91
2022-08-07T00:56:13.790Z,102445.19
2022-08-07T00:58:43.925Z,102446.22
2022-08-07T01:01:16.919Z,102432.34
2022-08-07T01:03:54.696Z,102434.97
2022-08-07T01:06:25.380Z,102432.41
2022-08-07T01:08:55.533Z,102438.63
2022-08-07T01:12:27.909Z,102440.44
2022-08-07T01:14:12.705Z,102433.53
2022-08-07T01:16:47.239Z,102438.06
2022-08-07T01:19:19.784Z,102438.06
2022-08-07T01:21:55.382Z,102430.34
2022-08-07T01:24:30.652Z,102425.28
2022-08-07T01:27:01.315Z,102429.75
2022-08-07T01:29:33.780Z,102423.72
2022-08-07T01:32:05.515Z,102422.97
2022-08-07T01:34:44.533Z,102424.88
2022-08-07T01:37:17.381Z,102423.28
2022-08-07T01:39:48.804Z,102427.81
2022-08-07T01:42:38.686Z,102423.53
2022-08-07T01:45:18.196Z,102420.16
2022-08-07T01:48:17.626Z,102420.25
2022-08-07T01:50:47.145Z,102410.75
2022-08-07T01:54:00.706Z,102417.75
2022-08-07T01:56:23.942Z,102421.31
2022-08-07T01:59:19.554Z,102419.59
2022-08-07T02:02:02.762Z,102415.25
2022-08-07T02:04:56.593Z,102411.03
2022-08-07T02:07:50.237Z,102404.09
2022-08-07T02:10:27.807Z,102410.41
2022-08-07T02:13:01.693Z,102405.19
2022-08-07T02:15:40.011Z,102409.72
2022-08-07T02:18:13.146Z,102408.06
2022-08-07T02:20:48.684Z,102410.81
2022-08-07T02:23:23.901Z,102400.50
2022-08-07T02:26:31.542Z,102405.84
2022-08-07T02:28:47.310Z,102402.47
2022-08-07T02:31:28.220Z,102398.13
2022-08-07T02:34:03.017Z,102401.75
2022-08-07T02:36:36.934Z,102399.09
2022-08-07T02:39:17.518Z,102400.84
2022-08-07T02:42:03.402Z,102396.59
2022-08-07T02:44:48.067Z,102389.78
2022-08-07T02:47:19.852Z,102390.75
2022-08-07T02:49:58.932Z,102396.06
2022-08-07T02:52:41.392Z,102383.91
2022-08-07T02:56:03.915Z,102390.28
2022-08-07T02:58:23.349Z,102392.25
2022-08-07T03:00:59.366Z,102401.13
2022-08-07T03:03:48.955Z,102397.72
2022-08-07T03:06:25.869Z,102394.22
2022-08-07T03:09:11.306Z,102392.41
2022-08-07T03:11:51.601Z,102389.84
2022-08-07T03:14:22.651Z,102388.94
2022-08-07T03:16:52.354Z,102398.63
2022-08-07T03:19:20.929Z,102396.94
2022-08-07T03:21:51.310Z,102396.22
2022-08-07T03:24:26.968Z,102394.53
2022-08-07T03:27:03.629Z,102397.28
2022-08-07T03:29:52.399Z,102399.97
2022-08-07T03:32:33.338Z,102386.88
2022-08-07T03:35:17.639Z,102385.19
2022-08-07T03:37:56.475Z,102385.28
2022-08-07T03:40:31.077Z,102376.47
2022-08-07T03:43:10.086Z,102374.88
2022-08-07T03:45:47.662Z,102389.81
2022-08-07T03:48:18.415Z,102388.19
2022-08-07T03:50:55.883Z,102393.56
2022-08-07T03:54:00.724Z,102384.00
2022-08-07T03:56:33.131Z,102384.91
2022-08-07T03:59:09.803Z,102392.06
2022-08-07T04:01:46.749Z,102397.38
2022-08-07T04:04:19.120Z,102398.34
2022-08-07T04:06:53.335Z,102402.78
2022-08-07T04:09:24.412Z,102407.19
2022-08-07T04:12:25.887Z,102409.00
2022-08-07T04:14:48.969Z,102407.34
2022-08-07T04:17:21.123Z,102406.50
2022-08-07T04:19:51.771Z,102405.59
2022-08-07T04:22:29.659Z,102414.41
2022-08-07T04:25:08.916Z,102406.53
2022-08-07T04:27:44.317Z,102409.13
2022-08-07T04:30:21.719Z,102413.44
2022-08-07T04:33:15.449Z,102412.53
2022-08-07T04:35:51.055Z,102412.59
2022-08-07T04:38:23.026Z,102417.84
2022-08-07T04:40:52.796Z,102412.47
2022-08-07T04:44:12.215Z,102417.53
2022-08-07T04:46:59.266Z,102415.41
2022-08-07T04:50:03.653Z,102415.72
2022-08-07T04:53:03.771Z,102418.84
2022-08-07T04:58:14.633Z,102421.16
2022-08-07T05:00:12.729Z,102422.91
2022-08-07T05:02:43.404Z,102421.00
2022-08-07T05:05:52.765Z,102418.31
2022-08-07T05:09:18.862Z,102427.03
2022-08-07T05:12:10.803Z,102427.94
2022-08-07T05:14:56.261Z,102420.09
2022-08-07T05:17:52.123Z,102427.88
2022-08-07T05:20:39.913Z,102429.56
2022-08-07T05:23:50.138Z,102433.03
2022-08-07T05:26:25.938Z,102432.19
2022-08-07T05:29:04.901Z,102436.31
2022-08-07T05:31:40.154Z,102439.63
2022-08-07T05:34:19.912Z,102437.69
2022-08-07T05:36:55.934Z,102445.41
2022-08-07T05:40:14.302Z,102438.16
2022-08-07T05:42:37.013Z,102439.63
2022-08-07T05:45:25.930Z,102437.56
2022-08-07T05:48:05.736Z,102440.75
2022-08-07T05:50:43.309Z,102447.47
2022-08-07T05:54:09.429Z,102440.06
2022-08-07T05:56:06.111Z,102441.44
2022-08-07T05:58:41.227Z,102443.72
2022-08-07T06:01:20.838Z,102437.31
2022-08-07T06:03:58.573Z,102439.66
2022-08-07T06:06:32.566Z,102443.56
2022-08-07T06:09:05.006Z,102447.53
2022-08-07T06:11:36.020Z,102448.22
2022-08-07T06:14:13.379Z,102447.88
2022-08-07T06:16:56.210Z,102445.72
2022-08-07T06:19:52.353Z,102451.38
2022-08-07T06:22:23.779Z,102452.63
2022-08-07T06:25:01.784Z,102451.47
2022-08-07T06:27:43.937Z,102456.34
2022-08-07T06:30:24.151Z,102454.84
2022-08-07T06:33:04.870Z,102452.72
2022-08-07T06:35:45.318Z,102445.22
2022-08-07T06:38:20.205Z,102445.66
2022-08-07T06:40:56.105Z,102441.47
2022-08-07T06:43:39.761Z,102442.00
2022-08-07T06:46:15.472Z,102437.22
2022-08-07T06:49:04.389Z,102440.31
2022-08-07T06:51:49.535Z,102437.22
2022-08-07T06:55:32.411Z,102426.13
2022-08-07T06:57:13.621Z,102429.03
2022-08-07T07:00:12.995Z,102427.56
2022-08-07T07:02:53.391Z,102424.09
2022-08-07T07:06:02.440Z,102418.19
2022-08-07T07:08:18.641Z,102423.63
2022-08-07T07:10:56.652Z,102430.06
2022-08-07T07:13:58.357Z,102419.53
2022-08-07T07:16:39.053Z,102430.31
2022-08-07T07:19:57.876Z,102434.28
2022-08-07T07:22:37.024Z,102433.63
2022-08-07T07:26:30.660Z,102438.06
2022-08-07T07:28:42.036Z,102430.41
2022-08-07T07:31:26.002Z,102429.72
2022-08-07T07:34:08.373Z,102422.97
2022-08-07T07:36:41.844Z,102421.50
2022-08-07T07:39:17.829Z,102411.13
2022-08-07T07:42:12.865Z,102410.69
2022-08-07T07:44:45.190Z,102418.81
2022-08-07T07:47:23.097Z,102406.69
2022-08-07T07:50:33.100Z,102411.09
2022-08-07T07:52:46.929Z,102404.34
2022-08-07T07:55:18.430Z,102403.88
2022-08-07T07:57:54.019Z,102404.63
2022-08-07T08:00:29.696Z,102402.56
2022-08-07T08:04:06.090Z,102415.09
2022-08-07T08:06:06.932Z,102418.38
2022-08-07T08:08:43.027Z,102415.53
2022-08-07T08:11:16.621Z,102416.28
2022-08-07T08:13:59.708Z,102407.72
2022-08-07T08:16:50.268Z,102403.66
2022-08-07T08:20:18.311Z,102405.94
2022-08-07T08:22:34.278Z,102409.56
2022-08-07T08:25:27.041Z,102408.22
2022-08-07T08:28:37.257Z,102402.31
2022-08-07T08:31:15.798Z,102404.56
2022-08-07T08:33:49.283Z,102407.66
2022-08-07T08:36:25.468Z,102420.03
2022-08-07T08:39:01.901Z,102417.25
2022-08-07T08:41:59.747Z,102420.88
2022-08-07T08:45:58.934Z,102414.97
2022-08-07T08:49:07.172Z,102410.00
2022-08-07T08:52:13.052Z,102407.22
2022-08-07T08:55:21.200Z,102408.13
2022-08-07T08:58:28.725Z,102403.53
2022-08-07T09:01:29.561Z,102399.66
2022-08-07T09:04:25.733Z,102404.50
2022-08-07T09:07:14.220Z,102401.75
2022-08-07T09:10:14.662Z,102404.69
2022-08-07T09:13:36.979Z,102403.13
2022-08-07T09:16:30.773Z,102396.38
2022-08-07T09:19:51.589Z,102395.97
2022-08-07T09:24:28.543Z,102381.00
2022-08-07T09:25:58.632Z,102384.06
2022-08-07T09:30:02.368Z,102392.50
2022-08-07T09:32:17.192Z,102386.59
2022-08-07T09:36:04.846Z,102384.47
2022-08-07T09:38:12.014Z,102387.00
2022-08-07T09:41:36.469Z,102390.56
2022-08-07T09:47:27.512Z,102389.16
2022-08-07T09:48:19.562Z,102383.50
2022-08-07T09:52:10.949Z,102376.41
2022-08-07T09:54:34.294Z,102372.22
2022-08-07T09:57:32.985Z,102372.16
2022-08-07T10:00:16.226Z,102359.50
2022-08-07T10:04:06.293Z,102358.09
2022-08-07T10:07:24.575Z,102355.09
2022-08-07T10:11:00.188Z,102349.75
2022-08-07T10:14:02.348Z,102348.19
2022-08-07T10:18:00.785Z,102352.13
2022-08-07T10:21:19.515Z,102347.00
2022-08-07T10:24:52.125Z,102342.72
2022-08-07T10:27:59.257Z,102335.63
2022-08-07T10:31:11.016Z,102336.84
2022-08-07T10:34:18.158Z,102330.47
2022-08-07T10:37:13.921Z,102332.63
2022-08-07T10:40:12.730Z,102331.44
2022-08-07T10:43:07.241Z,102327.97
2022-08-07T10:45:57.648Z,102334.66
2022-08-07T10:49:02.382Z,102331.44
2022-08-07T10:52:01.653Z,102330.78
2022-08-07T10:55:36.985Z,102314.75
2022-08-07T10:58:36.772Z,102313.78
2022-08-07T11:01:35.873Z,102312.81
2022-08-07T11:04:59.587Z,102304.63
2022-08-07T11:08:18.374Z,102305.03
2022-08-07T11:11:29.630Z,102299.03
2022-08-07T11:14:57.003Z,102301.13
2022-08-07T11:17:56.598Z,102298.50
2022-08-07T11:21:07.747Z,102291.06
2022-08-07T11:24:10.145Z,102295.78
2022-08-07T11:28:01.286Z,102293.16
2022-08-07T11:31:00.463Z,102278.97
2022-08-07T11:34:06.458Z,102282.56
2022-08-07T11:37:57.399Z,102280.91
2022-08-07T11:40:51.682Z,102271.72
2022-08-07T11:43:54.556Z,102266.59
2022-08-07T11:47:56.450Z,102271.41
2022-08-07T11:51:41.588Z,102259.31
2022-08-07T11:54:37.362Z,102266.19
2022-08-07T11:57:59.665Z,102264.69
2022-08-07T12:01:05.258Z,102264.47
2022-08-07T12:04:59.474Z,102251.47
2022-08-07T12:07:53.743Z,102255.41
2022-08-07T12:11:20.811Z,102249.22
2022-08-07T12:13:58.142Z,102242.66
2022-08-07T12:16:46.744Z,102242.84
2022-08-07T12:20:09.475Z,102243.59
2022-08-07T12:24:05.982Z,102240.34
2022-08-07T12:26:49.162Z,102244.28
2022-08-07T12:29:38.234Z,102247.66
2022-08-07T12:32:22.106Z,102242.66
2022-08-07T12:34:56.330Z,102236.75
2022-08-07T12:38:09.085Z,102231.13
2022-08-07T12:40:46.388Z,102239.06
2022-08-07T12:44:02.038Z,102230.56
2022-08-07T12:46:57.670Z,102226.88
2022-08-07T12:50:38.568Z,102226.72
2022-08-07T12:54:23.762Z,102224.75
2022-08-07T12:56:51.504Z,102230.81
2022-08-07T12:59:53.996Z,102225.47
2022-08-07T13:03:27.132Z,102214.19
2022-08-07T13:07:01.034Z,102217.81
2022-08-07T13:10:28.328Z,102217.09
2022-08-07T13:13:48.864Z,102212.84
2022-08-07T13:16:52.854Z,102207.63
2022-08-07T13:19:52.780Z,102205.09
2022-08-07T13:22:56.294Z,102204.97
2022-08-07T13:26:00.832Z,102205.66
2022-08-07T13:28:50.011Z,102204.53
2022-08-07T13:31:54.826Z,102198.59
2022-08-07T13:34:57.599Z,102200.81
2022-08-07T13:38:02.492Z,102207.06
2022-08-07T13:40:46.996Z,102194.63
2022-08-07T13:43:21.627Z,102199.19
2022-08-07T13:46:12.156Z,102192.19
2022-08-07T13:48:59.372Z,102192.22
2022-08-07T13:52:05.616Z,102189.72
2022-08-07T13:54:23.601Z,102187.25
2022-08-07T13:56:59.705Z,102180.03
2022-08-07T13:59:34.375Z,102179.25
2022-08-07T14:02:15.186Z,102182.47
2022-08-07T14:04:54.428Z,102177.47
2022-08-07T14:07:28.835Z,102182.63
2022-08-07T14:10:16.344Z,102173.66
2022-08-07T14:13:02.802Z,102174.47
2022-08-07T14:15:51.899Z,102169.53
2022-08-07T14:18:56.961Z,102168.56
2022-08-07T14:22:02.445Z,102171.81
2022-08-07T14:24:48.342Z,102171.88
2022-08-07T14:28:12.426Z,102177.13
2022-08-07T14:30:16.276Z,102171.66
2022-08-07T14:33:04.614Z,102168.88
2022-08-07T14:35:45.307Z,102168.19
2022-08-07T14:38:30.905Z,102160.75
2022-08-07T14:41:14.940Z,102169.84
2022-08-07T14:43:55.712Z,102173.69
2022-08-07T14:46:32.009Z,102169.34
2022-08-07T14:49:17.294Z,102165.03
2022-08-07T14:52:03.861Z,102166.25
2022-08-07T15:05:20.644Z,102158.03
2022-08-07T15:10:58.640Z,102157.44
2022-08-07T15:13:36.723Z,102157.63
2022-08-07T15:16:14.611Z,102154.13
2022-08-07T15:18:55.059Z,102155.47
2022-08-07T15:21:44.345Z,102156.72
2022-08-07T15:27:34.276Z,102152.97
2022-08-07T15:30:16.400Z,102146.84
2022-08-07T15:33:01.211Z,102138.31
2022-08-07T15:36:00.346Z,102143.75
2022-08-07T15:42:44.581Z,102138.13
2022-08-07T15:44:17.260Z,102127.75
2022-08-07T15:46:52.670Z,102132.53
2022-08-07T15:50:06.460Z,102122.13
2022-08-07T15:52:30.603Z,102113.44
2022-08-07T15:55:04.479Z,102120.44
2022-08-07T15:57:48.860Z,102119.69
2022-08-07T16:00:31.989Z,102117.97
2022-08-07T16:03:46.649Z,102118.31
2022-08-07T16:06:12.716Z,102115.28
2022-08-07T16:08:47.460Z,102109.91
2022-08-07T16:11:46.923Z,102112.53
2022-08-07T16:15:54.898Z,102108.25
2022-08-07T16:19:03.039Z,102115.63
2022-08-07T16:22:36.095Z,102118.44
2022-08-07T16:25:52.549Z,102121.78
2022-08-07T16:30:06.825Z,102112.63
2022-08-07T16:32:00.691Z,102121.81
2022-08-07T16:34:55.420Z,102107.03
2022-08-07T16:38:03.754Z,102100.72
2022-08-07T16:41:22.253Z,102104.41
2022-08-07T16:44:40.350Z,102109.84
2022-08-07T16:47:51.593Z,102103.91
2022-08-07T16:51:21.559Z,102094.34
2022-08-07T16:54:23.202Z,102106.53
2022-08-07T16:58:00.999Z,102104.19
2022-08-07T17:00:29.585Z,102100.13
2022-08-07T17:04:00.012Z,102097.59
2022-08-07T17:07:08.632Z,102106.06
2022-08-07T17:10:06.347Z,102109.03
2022-08-07T17:13:16.998Z,102108.34
2022-08-07T17:15:56.972Z,102103.13
2022-08-07T17:18:40.622Z,102113.19
2022-08-07T17:21:52.285Z,102100.41
2022-08-07T17:25:10.177Z,102096.31
2022-08-07T17:28:09.600Z,102107.81
2022-08-07T17:30:58.136Z,102104.00
2022-08-07T17:34:09.924Z,102105.00
2022-08-07T17:36:57.610Z,102105.00
2022-08-07T17:39:57.677Z,102111.88
2022-08-07T17:42:59.460Z,102125.25
2022-08-07T17:45:42.208Z,102124.41
2022-08-07T17:48:31.237Z,102117.31
2022-08-07T17:51:06.270Z,102119.94
2022-08-07T17:54:06.535Z,102117.66
2022-08-07T17:57:18.908Z,102125.13
2022-08-07T18:00:11.263Z,102112.81
2022-08-07T18:02:58.669Z,102129.88
2022-08-07T18:06:03.280Z,102121.13
2022-08-07T18:09:02.065Z,102116.31
2022-08-07T18:12:07.902Z,102122.78
2022-08-07T18:14:55.788Z,102124.09
2022-08-07T18:18:46.178Z,102129.50
2022-08-07T18:21:58.336Z,102133.44
2022-08-07T18:24:34.443Z,102133.56
2022-08-07T18:28:34.141Z,102134.66
2022-08-07T18:31:11.235Z,102139.19
2022-08-07T18:34:53.423Z,102144.84
2022-08-07T18:38:55.946Z,102147.81
2022-08-07T18:42:13.049Z,102154.75
2022-08-07T18:45:39.758Z,102152.13
2022-08-07T18:50:30.174Z,102151.41
2022-08-07T18:52:35.267Z,102153.63
2022-08-07T18:55:40.567Z,102158.88
2022-08-07T18:58:38.310Z,102158.13
2022-08-07T19:02:18.036Z,102165.25
2022-08-07T19:05:15.575Z,102158.22
2022-08-07T19:08:18.673Z,102166.59
2022-08-07T19:11:15.488Z,102160.41
2022-08-07T19:14:36.485Z,102174.06
2022-08-07T19:18:00.863Z,102172.97
2022-08-07T19:20:29.595Z,102171.13
2022-08-07T19:23:59.134Z,102175.53
2022-08-07T19:26:29.495Z,102184.19
2022-08-07T19:30:55.946Z,102179.44
2022-08-07T19:32:18.046Z,102185.56
2022-08-07T19:35:01.446Z,102192.41
2022-08-07T19:37:55.486Z,102193.97
2022-08-07T19:40:30.437Z,102194.50
2022-08-07T19:42:59.197Z,102190.94
2022-08-07T19:46:01.207Z,102202.00
2022-08-07T19:48:29.851Z,102204.38
2022-08-07T19:51:19.944Z,102213.72
2022-08-07T19:54:31.809Z,102202.66
2022-08-07T19:57:51.305Z,102211.06
2022-08-07T19:59:42.154Z,102211.50
2022-08-07T20:02:29.034Z,102214.72
2022-08-07T20:05:00.512Z,102217.91
2022-08-07T20:07:47.257Z,102220.03
2022-08-07T20:10:35.525Z,102213.44
2022-08-07T20:13:31.935Z,102217.66
2022-08-07T20:16:04.491Z,102218.84
2022-08-07T20:18:34.865Z,102223.72
2022-08-07T20:21:14.359Z,102223.28
2022-08-07T20:24:00.893Z,102216.78
2022-08-07T20:26:44.927Z,102217.25
2022-08-07T20:29:48.375Z,102229.25
2022-08-07T20:32:11.225Z,102218.28
2022-08-07T20:34:51.408Z,102219.66
2022-08-07T20:37:33.929Z,102219.88
2022-08-07T20:40:33.173Z,102225.56
2022-08-07T20:43:02.111Z,102227.78
2022-08-07T20:46:27.530Z,102228.09
2022-08-07T20:48:30.349Z,102234.53
2022-08-07T20:51:09.282Z,102231.44
2022-08-07T20:54:04.580Z,102230.03
2022-08-07T20:56:41.132Z,102230.50
2022-08-07T21:00:05.519Z,102239.69
2022-08-07T21:02:38.414Z,102226.09
2022-08-07T21:05:25.562Z,102237.09
2022-08-07T21:08:29.314Z,102230.41
2022-08-07T21:11:14.615Z,102230.91
2022-08-07T21:14:31.775Z,102237.25
2022-08-07T21:18:01.015Z,102236.66
2022-08-07T21:19:51.659Z,102242.44
2022-08-07T21:22:39.023Z,102239.25
2022-08-07T21:25:22.830Z,102235.84
2022-08-07T21:28:53.557Z,102237.16
2022-08-07T21:32:47.484Z,102236.59
2022-08-07T21:35:15.167Z,102234.31
2022-08-07T21:38:09.034Z,102249.44
2022-08-07T21:41:00.083Z,102242.63
2022-08-07T21:43:57.109Z,102245.66
2022-08-07T21:46:55.340Z,102236.25
2022-08-07T21:50:01.057Z,102233.97
2022-08-07T21:53:08.519Z,102237.97
2022-08-07T21:56:36.055Z,102238.41
2022-08-07T22:00:04.924Z,102241.31
2022-08-07T22:03:16.740Z,102240.81
2022-08-07T22:06:00.498Z,102249.84
2022-08-07T22:08:42.554Z,102246.50
2022-08-07T22:11:17.014Z,102256.34
2022-08-07T22:13:55.201Z,102239.03
2022-08-07T22:16:58.267Z,102250.56
2022-08-07T22:20:01.230Z,102252.69
2022-08-07T22:22:48.471Z,102249.56
2022-08-07T22:26:11.644Z,102253.31
2022-08-07T22:29:08.744Z,102255.19
2022-08-07T22:31:59.984Z,102253.66
2022-08-07T22:34:54.331Z,102268.00
2022-08-07T22:38:13.421Z,102262.09
2022-08-07T22:41:20.854Z,102264.25
2022-08-07T22:44:08.320Z,102272.34
2022-08-07T22:47:23.145Z,102276.97
2022-08-07T22:50:41.274Z,102283.44
2022-08-07T22:54:06.562Z,102282.94
2022-08-07T22:57:16.812Z,102283.09
2022-08-07T23:00:14.206Z,102286.81
2022-08-07T23:03:29.868Z,102286.31
2022-08-07T23:06:53.322Z,102290.03
2022-08-07T23:10:05.914Z,102288.50
2022-08-07T23:13:19.418Z,102289.78
2022-08-07T23:16:48.333Z,102292.66
2022-08-07T23:19:52.076Z,102288.50
2022-08-07T23:22:58.172Z,102287.81
2022-08-07T23:26:18.298Z,102283.72
2022-08-07T23:29:43.679Z,102281.16
2022-08-07T23:34:35.102Z,102277.66
2022-08-07T23:37:19.877Z,102283.09
2022-08-07T23:40:23.905Z,102274.50
2022-08-07T23:43:22.901Z,102275.41
2022-08-07T23:47:00.014Z,102270.13
2022-08-07T23:50:11.871Z,102271.28
2022-08-07T23:53:21.282Z,102282.81
2022-08-07T23:56:31.342Z,102282.81
